sensor_id;sensor_type;location;lat;lon;timestamp;temperature;humidity
60039;DHT22;45916;52.734;6.544;2024-01-10T00:01:45;-5.10;99.90
60039;DHT22;45916;52.734;6.544;2024-01-10T00:04:11;-5.20;99.90
60039;DHT22;45916;52.734;6.544;2024-01-10T00:06:37;-5.30;99.90
60039;DHT22;45916;52.734;6.544;2024-01-10T00:09:03;-5.30;99.90
60039;DHT22;45916;52.734;6.544;2024-01-10T00:11:28;-5.30;99.90
60039;DHT22;45916;52.734;6.544;2024-01-10T00:13:54;-5.30;99.90
60039;DHT22;45916;52.734;6.544;2024-01-10T00:16:25;-5.30;99.90
60039;DHT22;45916;52.734;6.544;2024-01-10T00:18:52;-5.30;99.90
60039;DHT22;45916;52.734;6.544;2024-01-10T00:21:17;-5.30;99.90
60039;DHT22;45916;52.734;6.544;2024-01-10T00:23:43;-5.30;99.90
60039;DHT22;45916;52.734;6.544;2024-01-10T00:26:09;-5.20;99.90
60039;DHT22;45916;52.734;6.544;2024-01-10T00:28:34;-5.20;99.90
60039;DHT22;45916;52.734;6.544;2024-01-10T00:31:00;-5.20;99.90
60039;DHT22;45916;52.734;6.544;2024-01-10T00:33:26;-5.20;99.90
60039;DHT22;45916;52.734;6.544;2024-01-10T00:35:52;-5.30;99.90
60039;DHT22;45916;52.734;6.544;2024-01-10T00:38:17;-5.30;99.90
60039;DHT22;45916;52.734;6.544;2024-01-10T00:40:43;-5.30;99.90
60039;DHT22;45916;52.734;6.544;2024-01-10T00:43:09;-5.30;99.90
60039;DHT22;45916;52.734;6.544;2024-01-10T00:45:34;-5.30;99.90
60039;DHT22;45916;52.734;6.544;2024-01-10T00:48:00;-5.30;99.90
60039;DHT22;45916;52.734;6.544;2024-01-10T00:50:25;-5.30;99.90
60039;DHT22;45916;52.734;6.544;2024-01-10T00:52:51;-5.30;99.90
60039;DHT22;45916;52.734;6.544;2024-01-10T00:55:17;-5.30;99.90
60039;DHT22;45916;52.734;6.544;2024-01-10T00:57:42;-5.30;99.90
60039;DHT22;45916;52.734;6.544;2024-01-10T01:00:09;-5.30;99.90
60039;DHT22;45916;52.734;6.544;2024-01-10T01:02:36;-5.30;99.90
60039;DHT22;45916;52.734;6.544;2024-01-10T01:05:05;-5.40;99.90
60039;DHT22;45916;52.734;6.544;2024-01-10T01:07:32;-5.30;99.90
60039;DHT22;45916;52.734;6.544;2024-01-10T01:09:58;-5.30;99.90
60039;DHT22;45916;52.734;6.544;2024-01-10T01:12:23;-5.30;99.90
60039;DHT22;45916;52.734;6.544;2024-01-10T01:14:49;-5.30;99.90
60039;DHT22;45916;52.734;6.544;2024-01-10T01:17:15;-5.30;99.90
60039;DHT22;45916;52.734;6.544;2024-01-10T01:19:40;-5.30;99.90
60039;DHT22;45916;52.734;6.544;2024-01-10T01:22:06;-5.40;99.90
60039;DHT22;45916;52.734;6.544;2024-01-10T01:24:32;-5.40;99.90
60039;DHT22;45916;52.734;6.544;2024-01-10T01:26:57;-5.40;99.90
60039;DHT22;45916;52.734;6.544;2024-01-10T01:29:23;-5.40;99.90
60039;DHT22;45916;52.734;6.544;2024-01-10T01:31:49;-5.40;99.90
60039;DHT22;45916;52.734;6.544;2024-01-10T01:34:15;-5.40;99.90
60039;DHT22;45916;52.734;6.544;2024-01-10T01:36:41;-5.40;99.90
60039;DHT22;45916;52.734;6.544;2024-01-10T01:39:07;-5.40;99.90
60039;DHT22;45916;52.734;6.544;2024-01-10T01:41:32;-5.40;99.90
60039;DHT22;45916;52.734;6.544;2024-01-10T01:43:58;-5.40;99.90
60039;DHT22;45916;52.734;6.544;2024-01-10T01:46:24;-5.40;99.90
60039;DHT22;45916;52.734;6.544;2024-01-10T01:48:50;-5.30;99.90
60039;DHT22;45916;52.734;6.544;2024-01-10T01:51:17;-5.40;99.90
60039;DHT22;45916;52.734;6.544;2024-01-10T01:53:44;-5.40;99.90
60039;DHT22;45916;52.734;6.544;2024-01-10T01:56:10;-5.40;99.90
60039;DHT22;45916;52.734;6.544;2024-01-10T01:58:39;-5.40;99.90
60039;DHT22;45916;52.734;6.544;2024-01-10T02:01:05;-5.40;99.90
60039;DHT22;45916;52.734;6.544;2024-01-10T02:03:31;-5.40;99.90
60039;DHT22;45916;52.734;6.544;2024-01-10T02:05:59;-5.50;99.90
60039;DHT22;45916;52.734;6.544;2024-01-10T02:08:25;-5.40;99.90
60039;DHT22;45916;52.734;6.544;2024-01-10T02:10:51;-5.50;99.90
60039;DHT22;45916;52.734;6.544;2024-01-10T02:13:17;-5.40;99.90
60039;DHT22;45916;52.734;6.544;2024-01-10T02:15:43;-5.50;99.90
60039;DHT22;45916;52.734;6.544;2024-01-10T02:18:09;-5.50;99.90
60039;DHT22;45916;52.734;6.544;2024-01-10T02:20:40;-5.50;99.90
60039;DHT22;45916;52.734;6.544;2024-01-10T02:23:07;-5.50;99.90
60039;DHT22;45916;52.734;6.544;2024-01-10T02:25:34;-5.50;99.90
60039;DHT22;45916;52.734;6.544;2024-01-10T02:28:00;-5.50;99.90
60039;DHT22;45916;52.734;6.544;2024-01-10T02:30:26;-5.50;99.90
60039;DHT22;45916;52.734;6.544;2024-01-10T02:32:51;-5.50;99.90
60039;DHT22;45916;52.734;6.544;2024-01-10T02:35:17;-5.60;99.90
60039;DHT22;45916;52.734;6.544;2024-01-10T02:37:43;-5.60;99.90
60039;DHT22;45916;52.734;6.544;2024-01-10T02:40:09;-5.60;99.90
60039;DHT22;45916;52.734;6.544;2024-01-10T02:42:35;-5.60;99.90
60039;DHT22;45916;52.734;6.544;2024-01-10T02:45:00;-5.60;99.90
60039;DHT22;45916;52.734;6.544;2024-01-10T02:47:26;-5.70;99.90
60039;DHT22;45916;52.734;6.544;2024-01-10T02:49:53;-5.70;99.90
60039;DHT22;45916;52.734;6.544;2024-01-10T02:52:19;-5.70;99.90
60039;DHT22;45916;52.734;6.544;2024-01-10T02:54:45;-5.70;99.90
60039;DHT22;45916;52.734;6.544;2024-01-10T02:57:11;-5.80;99.90
60039;DHT22;45916;52.734;6.544;2024-01-10T02:59:37;-5.80;99.90
60039;DHT22;45916;52.734;6.544;2024-01-10T03:02:02;-5.80;99.90
60039;DHT22;45916;52.734;6.544;2024-01-10T03:04:29;-5.80;99.90
60039;DHT22;45916;52.734;6.544;2024-01-10T03:06:54;-5.80;99.90
60039;DHT22;45916;52.734;6.544;2024-01-10T03:09:20;-5.90;99.90
60039;DHT22;45916;52.734;6.544;2024-01-10T03:11:46;-5.90;99.90
60039;DHT22;45916;52.734;6.544;2024-01-10T03:14:11;-5.80;99.90
60039;DHT22;45916;52.734;6.544;2024-01-10T03:16:37;-5.90;99.90
60039;DHT22;45916;52.734;6.544;2024-01-10T03:19:03;-5.90;99.90
60039;DHT22;45916;52.734;6.544;2024-01-10T03:21:29;-5.80;99.90
60039;DHT22;45916;52.734;6.544;2024-01-10T03:23:56;-5.80;99.90
60039;DHT22;45916;52.734;6.544;2024-01-10T03:26:22;-5.80;99.90
60039;DHT22;45916;52.734;6.544;2024-01-10T03:28:48;-5.90;99.90
60039;DHT22;45916;52.734;6.544;2024-01-10T03:31:14;-5.90;99.90
60039;DHT22;45916;52.734;6.544;2024-01-10T03:33:40;-5.80;99.90
60039;DHT22;45916;52.734;6.544;2024-01-10T03:36:09;-5.80;99.90
60039;DHT22;45916;52.734;6.544;2024-01-10T03:38:35;-5.80;99.90
60039;DHT22;45916;52.734;6.544;2024-01-10T03:41:01;-5.80;99.90
60039;DHT22;45916;52.734;6.544;2024-01-10T03:43:26;-5.80;99.90
60039;DHT22;45916;52.734;6.544;2024-01-10T03:45:52;-5.80;99.90
60039;DHT22;45916;52.734;6.544;2024-01-10T03:48:18;-5.70;99.90
60039;DHT22;45916;52.734;6.544;2024-01-10T03:50:43;-5.70;99.90
60039;DHT22;45916;52.734;6.544;2024-01-10T03:53:09;-5.70;99.90
60039;DHT22;45916;52.734;6.544;2024-01-10T03:55:34;-5.70;99.90
60039;DHT22;45916;52.734;6.544;2024-01-10T03:58:00;-5.60;99.90
60039;DHT22;45916;52.734;6.544;2024-01-10T04:00:26;-5.60;99.90
60039;DHT22;45916;52.734;6.544;2024-01-10T04:02:52;-5.60;99.90
60039;DHT22;45916;52.734;6.544;2024-01-10T04:05:18;-5.70;99.90
60039;DHT22;45916;52.734;6.544;2024-01-10T04:07:44;-5.60;99.90
60039;DHT22;45916;52.734;6.544;2024-01-10T04:10:12;-5.60;99.90
60039;DHT22;45916;52.734;6.544;2024-01-10T04:12:43;-5.60;99.90
60039;DHT22;45916;52.734;6.544;2024-01-10T04:15:09;-5.70;99.90
60039;DHT22;45916;52.734;6.544;2024-01-10T04:17:35;-5.80;99.90
60039;DHT22;45916;52.734;6.544;2024-01-10T04:20:01;-5.80;99.90
60039;DHT22;45916;52.734;6.544;2024-01-10T04:22:28;-5.80;99.90
60039;DHT22;45916;52.734;6.544;2024-01-10T04:24:55;-5.80;99.90
60039;DHT22;45916;52.734;6.544;2024-01-10T04:27:21;-5.80;99.90
60039;DHT22;45916;52.734;6.544;2024-01-10T04:29:46;-5.80;99.90
60039;DHT22;45916;52.734;6.544;2024-01-10T04:32:13;-5.80;99.90
60039;DHT22;45916;52.734;6.544;2024-01-10T04:34:38;-5.80;99.90
60039;DHT22;45916;52.734;6.544;2024-01-10T04:37:04;-5.80;99.90
60039;DHT22;45916;52.734;6.544;2024-01-10T04:39:30;-5.80;99.90
60039;DHT22;45916;52.734;6.544;2024-01-10T04:41:55;-5.80;99.90
60039;DHT22;45916;52.734;6.544;2024-01-10T04:44:21;-5.80;99.90
60039;DHT22;45916;52.734;6.544;2024-01-10T04:46:47;-5.80;99.90
60039;DHT22;45916;52.734;6.544;2024-01-10T04:49:12;-5.70;99.90
60039;DHT22;45916;52.734;6.544;2024-01-10T04:51:39;-5.80;99.90
60039;DHT22;45916;52.734;6.544;2024-01-10T04:54:05;-5.70;99.90
60039;DHT22;45916;52.734;6.544;2024-01-10T04:56:30;-5.70;99.90
60039;DHT22;45916;52.734;6.544;2024-01-10T04:58:56;-5.70;99.90
60039;DHT22;45916;52.734;6.544;2024-01-10T05:01:22;-5.70;99.90
60039;DHT22;45916;52.734;6.544;2024-01-10T05:03:49;-5.70;99.90
60039;DHT22;45916;52.734;6.544;2024-01-10T05:06:14;-5.60;99.90
60039;DHT22;45916;52.734;6.544;2024-01-10T05:08:40;-5.70;99.90
60039;DHT22;45916;52.734;6.544;2024-01-10T05:11:06;-5.60;99.90
60039;DHT22;45916;52.734;6.544;2024-01-10T05:13:31;-5.60;99.90
60039;DHT22;45916;52.734;6.544;2024-01-10T05:15:57;-5.60;99.90
60039;DHT22;45916;52.734;6.544;2024-01-10T05:18:23;-5.60;99.90
60039;DHT22;45916;52.734;6.544;2024-01-10T05:20:49;-5.60;99.90
60039;DHT22;45916;52.734;6.544;2024-01-10T05:23:15;-5.60;99.90
60039;DHT22;45916;52.734;6.544;2024-01-10T05:25:41;-5.50;99.90
60039;DHT22;45916;52.734;6.544;2024-01-10T05:28:06;-5.50;99.90
60039;DHT22;45916;52.734;6.544;2024-01-10T05:30:32;-5.60;99.90
60039;DHT22;45916;52.734;6.544;2024-01-10T05:32:58;-5.60;99.90
60039;DHT22;45916;52.734;6.544;2024-01-10T05:35:24;-5.60;99.90
60039;DHT22;45916;52.734;6.544;2024-01-10T05:37:51;-5.60;99.90
60039;DHT22;45916;52.734;6.544;2024-01-10T05:40:18;-5.70;99.90
60039;DHT22;45916;52.734;6.544;2024-01-10T05:42:44;-5.70;99.90
60039;DHT22;45916;52.734;6.544;2024-01-10T05:45:10;-5.70;99.90
60039;DHT22;45916;52.734;6.544;2024-01-10T05:47:36;-5.70;99.90
60039;DHT22;45916;52.734;6.544;2024-01-10T05:50:03;-5.70;99.90
60039;DHT22;45916;52.734;6.544;2024-01-10T05:52:31;-5.70;99.90
60039;DHT22;45916;52.734;6.544;2024-01-10T05:54:59;-5.70;99.90
60039;DHT22;45916;52.734;6.544;2024-01-10T05:57:27;-5.70;99.90
60039;DHT22;45916;52.734;6.544;2024-01-10T05:59:53;-5.80;99.90
60039;DHT22;45916;52.734;6.544;2024-01-10T06:02:22;-5.80;99.90
60039;DHT22;45916;52.734;6.544;2024-01-10T06:04:50;-5.80;99.90
60039;DHT22;45916;52.734;6.544;2024-01-10T06:07:15;-5.80;99.90
60039;DHT22;45916;52.734;6.544;2024-01-10T06:09:41;-5.80;99.90
60039;DHT22;45916;52.734;6.544;2024-01-10T06:12:09;-5.80;99.90
60039;DHT22;45916;52.734;6.544;2024-01-10T06:14:35;-5.80;99.90
60039;DHT22;45916;52.734;6.544;2024-01-10T06:17:01;-5.80;99.90
60039;DHT22;45916;52.734;6.544;2024-01-10T06:19:29;-5.80;99.90
60039;DHT22;45916;52.734;6.544;2024-01-10T06:21:57;-5.80;99.90
60039;DHT22;45916;52.734;6.544;2024-01-10T06:24:22;-5.80;99.90
60039;DHT22;45916;52.734;6.544;2024-01-10T06:26:48;-5.70;99.90
60039;DHT22;45916;52.734;6.544;2024-01-10T06:29:15;-5.70;99.90
60039;DHT22;45916;52.734;6.544;2024-01-10T06:31:41;-5.70;99.90
60039;DHT22;45916;52.734;6.544;2024-01-10T06:34:07;-5.80;99.90
60039;DHT22;45916;52.734;6.544;2024-01-10T06:36:33;-5.80;99.90
60039;DHT22;45916;52.734;6.544;2024-01-10T06:38:58;-5.80;99.90
60039;DHT22;45916;52.734;6.544;2024-01-10T06:41:24;-5.80;99.90
60039;DHT22;45916;52.734;6.544;2024-01-10T06:43:53;-5.80;99.90
60039;DHT22;45916;52.734;6.544;2024-01-10T06:46:19;-5.80;99.90
60039;DHT22;45916;52.734;6.544;2024-01-10T06:48:45;-5.80;99.90
60039;DHT22;45916;52.734;6.544;2024-01-10T06:51:15;-5.80;99.90
60039;DHT22;45916;52.734;6.544;2024-01-10T06:53:41;-5.70;99.90
60039;DHT22;45916;52.734;6.544;2024-01-10T06:56:07;-5.80;99.90
60039;DHT22;45916;52.734;6.544;2024-01-10T06:58:35;-5.80;99.90
60039;DHT22;45916;52.734;6.544;2024-01-10T07:01:01;-5.70;99.90
60039;DHT22;45916;52.734;6.544;2024-01-10T07:03:26;-5.70;99.90
60039;DHT22;45916;52.734;6.544;2024-01-10T07:05:52;-5.70;99.90
60039;DHT22;45916;52.734;6.544;2024-01-10T07:08:18;-5.80;99.90
60039;DHT22;45916;52.734;6.544;2024-01-10T07:10:44;-5.80;99.90
60039;DHT22;45916;52.734;6.544;2024-01-10T07:13:10;-5.70;99.90
60039;DHT22;45916;52.734;6.544;2024-01-10T07:15:36;-5.80;99.90
60039;DHT22;45916;52.734;6.544;2024-01-10T07:18:04;-5.80;99.90
60039;DHT22;45916;52.734;6.544;2024-01-10T07:20:30;-5.80;99.90
60039;DHT22;45916;52.734;6.544;2024-01-10T07:22:55;-5.80;99.90
60039;DHT22;45916;52.734;6.544;2024-01-10T07:25:21;-5.80;99.90
60039;DHT22;45916;52.734;6.544;2024-01-10T07:27:53;-5.80;99.90
60039;DHT22;45916;52.734;6.544;2024-01-10T07:30:18;-5.80;99.90
60039;DHT22;45916;52.734;6.544;2024-01-10T07:32:45;-5.80;99.90
60039;DHT22;45916;52.734;6.544;2024-01-10T07:35:12;-5.80;99.90
60039;DHT22;45916;52.734;6.544;2024-01-10T07:37:40;-5.80;99.90
60039;DHT22;45916;52.734;6.544;2024-01-10T07:40:07;-5.80;99.90
60039;DHT22;45916;52.734;6.544;2024-01-10T07:42:37;-5.90;99.90
60039;DHT22;45916;52.734;6.544;2024-01-10T07:45:03;-5.90;99.90
60039;DHT22;45916;52.734;6.544;2024-01-10T07:47:34;-5.80;99.90
60039;DHT22;45916;52.734;6.544;2024-01-10T07:50:07;-5.70;99.90
60039;DHT22;45916;52.734;6.544;2024-01-10T07:52:33;-5.70;99.90
60039;DHT22;45916;52.734;6.544;2024-01-10T07:55:00;-5.70;99.90
60039;DHT22;45916;52.734;6.544;2024-01-10T07:57:26;-5.70;99.90
60039;DHT22;45916;52.734;6.544;2024-01-10T07:59:53;-5.60;99.90
60039;DHT22;45916;52.734;6.544;2024-01-10T08:02:19;-5.60;99.90
60039;DHT22;45916;52.734;6.544;2024-01-10T08:04:45;-5.60;99.90
60039;DHT22;45916;52.734;6.544;2024-01-10T08:07:10;-5.60;99.90
60039;DHT22;45916;52.734;6.544;2024-01-10T08:09:36;-5.60;99.90
60039;DHT22;45916;52.734;6.544;2024-01-10T08:12:03;-5.60;99.90
60039;DHT22;45916;52.734;6.544;2024-01-10T08:14:29;-5.50;99.90
60039;DHT22;45916;52.734;6.544;2024-01-10T08:16:54;-5.30;99.90
60039;DHT22;45916;52.734;6.544;2024-01-10T08:19:24;-5.00;99.90
60039;DHT22;45916;52.734;6.544;2024-01-10T08:21:54;-4.00;99.90
60039;DHT22;45916;52.734;6.544;2024-01-10T08:24:20;-2.90;99.90
60039;DHT22;45916;52.734;6.544;2024-01-10T08:26:49;-1.70;99.90
60039;DHT22;45916;52.734;6.544;2024-01-10T08:29:18;-0.90;99.90
60039;DHT22;45916;52.734;6.544;2024-01-10T08:31:45;-0.40;99.90
60039;DHT22;45916;52.734;6.544;2024-01-10T08:34:11;0.20;99.90
60039;DHT22;45916;52.734;6.544;2024-01-10T08:36:37;1.20;99.90
60039;DHT22;45916;52.734;6.544;2024-01-10T08:39:03;2.10;99.90
60039;DHT22;45916;52.734;6.544;2024-01-10T08:41:30;2.90;99.90
60039;DHT22;45916;52.734;6.544;2024-01-10T08:43:56;3.50;99.90
60039;DHT22;45916;52.734;6.544;2024-01-10T08:46:23;3.80;99.90
60039;DHT22;45916;52.734;6.544;2024-01-10T08:48:51;4.40;99.90
60039;DHT22;45916;52.734;6.544;2024-01-10T08:51:17;5.10;99.90
60039;DHT22;45916;52.734;6.544;2024-01-10T08:53:43;5.90;99.90
60039;DHT22;45916;52.734;6.544;2024-01-10T08:56:10;6.40;99.90
60039;DHT22;45916;52.734;6.544;2024-01-10T08:58:36;6.70;96.10
60039;DHT22;45916;52.734;6.544;2024-01-10T09:01:02;7.10;96.90
60039;DHT22;45916;52.734;6.544;2024-01-10T09:03:29;7.50;95.90
60039;DHT22;45916;52.734;6.544;2024-01-10T09:05:55;8.00;93.90
60039;DHT22;45916;52.734;6.544;2024-01-10T09:08:21;8.50;90.30
60039;DHT22;45916;52.734;6.544;2024-01-10T09:10:46;8.80;90.20
60039;DHT22;45916;52.734;6.544;2024-01-10T09:13:15;9.10;88.80
60039;DHT22;45916;52.734;6.544;2024-01-10T09:15:41;9.10;84.50
60039;DHT22;45916;52.734;6.544;2024-01-10T09:18:06;9.10;84.20
60039;DHT22;45916;52.734;6.544;2024-01-10T09:20:32;9.40;75.90
60039;DHT22;45916;52.734;6.544;2024-01-10T09:22:58;9.80;75.00
60039;DHT22;45916;52.734;6.544;2024-01-10T09:25:26;10.10;78.90
60039;DHT22;45916;52.734;6.544;2024-01-10T09:27:51;9.70;71.90
60039;DHT22;45916;52.734;6.544;2024-01-10T09:30:17;9.90;76.30
60039;DHT22;45916;52.734;6.544;2024-01-10T09:32:43;10.40;73.80
60039;DHT22;45916;52.734;6.544;2024-01-10T09:35:10;10.60;71.80
60039;DHT22;45916;52.734;6.544;2024-01-10T09:37:36;10.80;71.00
60039;DHT22;45916;52.734;6.544;2024-01-10T09:40:02;10.90;66.00
60039;DHT22;45916;52.734;6.544;2024-01-10T09:42:28;10.70;66.50
60039;DHT22;45916;52.734;6.544;2024-01-10T09:44:57;10.80;68.00
60039;DHT22;45916;52.734;6.544;2024-01-10T09:47:23;10.90;68.20
60039;DHT22;45916;52.734;6.544;2024-01-10T09:49:49;10.30;65.60
60039;DHT22;45916;52.734;6.544;2024-01-10T09:52:26;10.30;66.20
60039;DHT22;45916;52.734;6.544;2024-01-10T09:54:56;10.80;64.30
60039;DHT22;45916;52.734;6.544;2024-01-10T09:57:23;10.70;62.70
60039;DHT22;45916;52.734;6.544;2024-01-10T09:59:51;10.00;64.80
60039;DHT22;45916;52.734;6.544;2024-01-10T10:02:18;10.20;64.80
60039;DHT22;45916;52.734;6.544;2024-01-10T10:07:16;10.40;63.50
60039;DHT22;45916;52.734;6.544;2024-01-10T10:09:42;11.00;63.80
60039;DHT22;45916;52.734;6.544;2024-01-10T10:12:07;11.20;62.10
60039;DHT22;45916;52.734;6.544;2024-01-10T10:14:33;11.70;60.90
60039;DHT22;45916;52.734;6.544;2024-01-10T10:17:16;12.00;60.60
60039;DHT22;45916;52.734;6.544;2024-01-10T10:19:42;12.30;59.00
60039;DHT22;45916;52.734;6.544;2024-01-10T10:22:10;11.80;58.40
60039;DHT22;45916;52.734;6.544;2024-01-10T10:24:37;11.60;58.40
60039;DHT22;45916;52.734;6.544;2024-01-10T10:27:12;11.60;58.20
60039;DHT22;45916;52.734;6.544;2024-01-10T10:29:39;12.20;57.70
60039;DHT22;45916;52.734;6.544;2024-01-10T10:32:05;12.10;56.90
60039;DHT22;45916;52.734;6.544;2024-01-10T10:34:31;12.00;56.90
60039;DHT22;45916;52.734;6.544;2024-01-10T10:37:01;11.90;57.30
60039;DHT22;45916;52.734;6.544;2024-01-10T10:39:28;12.10;57.80
60039;DHT22;45916;52.734;6.544;2024-01-10T10:41:54;11.40;56.90
60039;DHT22;45916;52.734;6.544;2024-01-10T10:44:23;11.30;57.60
60039;DHT22;45916;52.734;6.544;2024-01-10T10:46:52;11.00;57.40
60039;DHT22;45916;52.734;6.544;2024-01-10T10:49:22;10.70;57.40
60039;DHT22;45916;52.734;6.544;2024-01-10T10:51:51;10.60;57.10
60039;DHT22;45916;52.734;6.544;2024-01-10T10:54:18;10.40;58.00
60039;DHT22;45916;52.734;6.544;2024-01-10T10:56:45;10.30;58.40
60039;DHT22;45916;52.734;6.544;2024-01-10T10:59:12;9.40;59.20
60039;DHT22;45916;52.734;6.544;2024-01-10T11:01:39;8.60;59.30
60039;DHT22;45916;52.734;6.544;2024-01-10T11:04:05;7.30;60.80
60039;DHT22;45916;52.734;6.544;2024-01-10T11:06:31;6.60;62.40
60039;DHT22;45916;52.734;6.544;2024-01-10T11:09:05;5.70;64.10
60039;DHT22;45916;52.734;6.544;2024-01-10T11:14:50;3.90;67.20
60039;DHT22;45916;52.734;6.544;2024-01-10T11:25:30;2.10;70.70
60039;DHT22;45916;52.734;6.544;2024-01-10T11:27:56;1.90;71.70
60039;DHT22;45916;52.734;6.544;2024-01-10T11:30:35;1.70;71.40
60039;DHT22;45916;52.734;6.544;2024-01-10T11:33:02;1.60;70.40
60039;DHT22;45916;52.734;6.544;2024-01-10T11:36:15;1.30;71.90
60039;DHT22;45916;52.734;6.544;2024-01-10T11:41:24;1.00;71.80
60039;DHT22;45916;52.734;6.544;2024-01-10T11:46:50;0.90;74.30
60039;DHT22;45916;52.734;6.544;2024-01-10T11:49:18;0.80;76.30
60039;DHT22;45916;52.734;6.544;2024-01-10T11:51:46;0.70;76.20
60039;DHT22;45916;52.734;6.544;2024-01-10T11:54:12;0.70;75.20
60039;DHT22;45916;52.734;6.544;2024-01-10T11:56:42;0.60;75.30
60039;DHT22;45916;52.734;6.544;2024-01-10T11:59:12;0.50;74.10
60039;DHT22;45916;52.734;6.544;2024-01-10T12:01:41;0.40;74.50
60039;DHT22;45916;52.734;6.544;2024-01-10T12:04:08;0.40;74.70
60039;DHT22;45916;52.734;6.544;2024-01-10T12:06:35;0.40;74.90
60039;DHT22;45916;52.734;6.544;2024-01-10T12:09:02;0.40;76.00
60039;DHT22;45916;52.734;6.544;2024-01-10T12:11:31;0.40;76.70
60039;DHT22;45916;52.734;6.544;2024-01-10T12:13:57;0.40;77.10
60039;DHT22;45916;52.734;6.544;2024-01-10T12:16:23;0.30;77.00
60039;DHT22;45916;52.734;6.544;2024-01-10T12:18:49;0.30;77.40
60039;DHT22;45916;52.734;6.544;2024-01-10T12:21:16;0.40;77.10
60039;DHT22;45916;52.734;6.544;2024-01-10T12:23:43;0.30;76.80
60039;DHT22;45916;52.734;6.544;2024-01-10T12:26:10;0.30;77.30
60039;DHT22;45916;52.734;6.544;2024-01-10T12:28:41;0.30;77.10
60039;DHT22;45916;52.734;6.544;2024-01-10T12:31:18;0.30;77.10
60039;DHT22;45916;52.734;6.544;2024-01-10T12:33:44;0.30;77.20
60039;DHT22;45916;52.734;6.544;2024-01-10T12:36:10;0.30;77.80
60039;DHT22;45916;52.734;6.544;2024-01-10T12:38:38;0.30;77.60
60039;DHT22;45916;52.734;6.544;2024-01-10T12:41:04;0.40;78.50
60039;DHT22;45916;52.734;6.544;2024-01-10T12:43:31;0.40;77.70
60039;DHT22;45916;52.734;6.544;2024-01-10T12:46:07;0.30;78.50
60039;DHT22;45916;52.734;6.544;2024-01-10T12:48:34;0.30;78.80
60039;DHT22;45916;52.734;6.544;2024-01-10T12:51:07;0.30;79.30
60039;DHT22;45916;52.734;6.544;2024-01-10T12:53:38;0.30;79.60
60039;DHT22;45916;52.734;6.544;2024-01-10T12:56:05;0.30;78.40
60039;DHT22;45916;52.734;6.544;2024-01-10T12:58:32;0.30;78.10
60039;DHT22;45916;52.734;6.544;2024-01-10T13:00:58;0.30;79.10
60039;DHT22;45916;52.734;6.544;2024-01-10T13:03:24;0.30;79.30
60039;DHT22;45916;52.734;6.544;2024-01-10T13:05:50;0.30;78.50
60039;DHT22;45916;52.734;6.544;2024-01-10T13:08:17;0.20;78.80
60039;DHT22;45916;52.734;6.544;2024-01-10T13:10:45;0.20;78.90
60039;DHT22;45916;52.734;6.544;2024-01-10T13:13:11;0.20;79.80
60039;DHT22;45916;52.734;6.544;2024-01-10T13:15:37;0.20;79.00
60039;DHT22;45916;52.734;6.544;2024-01-10T13:18:03;0.20;78.50
60039;DHT22;45916;52.734;6.544;2024-01-10T13:20:29;0.20;78.50
60039;DHT22;45916;52.734;6.544;2024-01-10T13:22:55;0.20;77.80
60039;DHT22;45916;52.734;6.544;2024-01-10T13:25:20;0.20;78.40
60039;DHT22;45916;52.734;6.544;2024-01-10T13:27:52;0.10;78.40
60039;DHT22;45916;52.734;6.544;2024-01-10T13:30:19;0.10;79.10
60039;DHT22;45916;52.734;6.544;2024-01-10T13:32:45;0.10;80.20
60039;DHT22;45916;52.734;6.544;2024-01-10T13:35:14;0.10;79.90
60039;DHT22;45916;52.734;6.544;2024-01-10T13:37:42;0.10;81.40
60039;DHT22;45916;52.734;6.544;2024-01-10T13:40:11;0.10;80.80
60039;DHT22;45916;52.734;6.544;2024-01-10T13:42:40;0.10;80.90
60039;DHT22;45916;52.734;6.544;2024-01-10T13:45:06;0.10;81.00
60039;DHT22;45916;52.734;6.544;2024-01-10T13:47:33;0.00;80.40
60039;DHT22;45916;52.734;6.544;2024-01-10T13:49:59;0.00;80.40
60039;DHT22;45916;52.734;6.544;2024-01-10T13:52:25;-0.10;80.20
60039;DHT22;45916;52.734;6.544;2024-01-10T13:54:51;-0.10;80.90
60039;DHT22;45916;52.734;6.544;2024-01-10T13:57:17;-0.10;81.20
60039;DHT22;45916;52.734;6.544;2024-01-10T13:59:43;-0.20;81.90
60039;DHT22;45916;52.734;6.544;2024-01-10T14:02:10;-0.20;82.20
60039;DHT22;45916;52.734;6.544;2024-01-10T14:04:36;-0.20;81.60
60039;DHT22;45916;52.734;6.544;2024-01-10T14:07:01;-0.20;82.90
60039;DHT22;45916;52.734;6.544;2024-01-10T14:09:29;-0.30;81.80
60039;DHT22;45916;52.734;6.544;2024-01-10T14:11:55;-0.30;81.90
60039;DHT22;45916;52.734;6.544;2024-01-10T14:14:21;-0.40;82.50
60039;DHT22;45916;52.734;6.544;2024-01-10T14:16:46;-0.40;83.50
60039;DHT22;45916;52.734;6.544;2024-01-10T14:19:12;-0.40;83.60
60039;DHT22;45916;52.734;6.544;2024-01-10T14:21:38;-0.50;83.50
60039;DHT22;45916;52.734;6.544;2024-01-10T14:24:04;-0.50;83.40
60039;DHT22;45916;52.734;6.544;2024-01-10T14:26:29;-0.60;83.40
60039;DHT22;45916;52.734;6.544;2024-01-10T14:28:55;-0.60;84.20
60039;DHT22;45916;52.734;6.544;2024-01-10T14:31:22;-0.60;84.90
60039;DHT22;45916;52.734;6.544;2024-01-10T14:33:48;-0.70;85.00
60039;DHT22;45916;52.734;6.544;2024-01-10T14:36:14;-0.70;85.40
60039;DHT22;45916;52.734;6.544;2024-01-10T14:38:41;-0.80;85.10
60039;DHT22;45916;52.734;6.544;2024-01-10T14:41:07;-0.80;85.50
60039;DHT22;45916;52.734;6.544;2024-01-10T14:43:33;-0.80;86.10
60039;DHT22;45916;52.734;6.544;2024-01-10T14:45:59;-0.90;86.50
60039;DHT22;45916;52.734;6.544;2024-01-10T14:48:24;-0.90;86.90
60039;DHT22;45916;52.734;6.544;2024-01-10T14:50:50;-1.00;87.10
60039;DHT22;45916;52.734;6.544;2024-01-10T14:53:16;-1.00;87.00
60039;DHT22;45916;52.734;6.544;2024-01-10T14:55:42;-1.10;87.10
60039;DHT22;45916;52.734;6.544;2024-01-10T14:58:07;-1.00;86.90
60039;DHT22;45916;52.734;6.544;2024-01-10T15:00:33;-1.10;87.20
60039;DHT22;45916;52.734;6.544;2024-01-10T15:02:59;-1.10;87.50
60039;DHT22;45916;52.734;6.544;2024-01-10T15:05:24;-1.10;87.20
60039;DHT22;45916;52.734;6.544;2024-01-10T15:07:52;-1.20;87.80
60039;DHT22;45916;52.734;6.544;2024-01-10T15:10:18;-1.20;88.00
60039;DHT22;45916;52.734;6.544;2024-01-10T15:12:44;-1.20;88.20
60039;DHT22;45916;52.734;6.544;2024-01-10T15:15:10;-1.30;88.30
60039;DHT22;45916;52.734;6.544;2024-01-10T15:17:36;-1.40;88.70
60039;DHT22;45916;52.734;6.544;2024-01-10T15:20:03;-1.40;89.20
60039;DHT22;45916;52.734;6.544;2024-01-10T15:22:29;-1.50;90.00
60039;DHT22;45916;52.734;6.544;2024-01-10T15:24:54;-1.60;90.10
60039;DHT22;45916;52.734;6.544;2024-01-10T15:27:20;-1.60;90.40
60039;DHT22;45916;52.734;6.544;2024-01-10T15:29:46;-1.60;90.60
60039;DHT22;45916;52.734;6.544;2024-01-10T15:32:11;-1.70;90.80
60039;DHT22;45916;52.734;6.544;2024-01-10T15:34:37;-1.70;91.00
60039;DHT22;45916;52.734;6.544;2024-01-10T15:37:04;-1.80;91.30
60039;DHT22;45916;52.734;6.544;2024-01-10T15:39:30;-1.80;91.50
60039;DHT22;45916;52.734;6.544;2024-01-10T15:41:55;-1.90;91.70
60039;DHT22;45916;52.734;6.544;2024-01-10T15:44:21;-2.00;91.80
60039;DHT22;45916;52.734;6.544;2024-01-10T15:46:47;-2.00;92.20
60039;DHT22;45916;52.734;6.544;2024-01-10T15:49:13;-2.10;92.40
60039;DHT22;45916;52.734;6.544;2024-01-10T15:51:39;-2.10;92.50